This is the latest recevied weather packets stored in our database for station/object WX5RP. If no packets are shown the sender has not sent any weather packets the latest 10 day(s).
| Time | Temp. | Humidity | Pressure | Rain* | Wind** | Luminosity | Snow |
|---|---|---|---|---|---|---|---|
| 1787781015 | 30° C | 24% | 1020.1 hPa | 0 mm | - | 168 W/m² | - |
| 1787780415 | 30° C | 18% | 1019.5 hPa | 0 mm | - | 838 W/m² | - |
| 1787779815 | 30° C | 19% | 1019.5 hPa | 0 mm | - | 850 W/m² | - |
| 1787779215 | 29.44° C | 25% | 1019.9 hPa | 0 mm | - | 883 W/m² | - |
| 1787778615 | 29.44° C | 23% | 1019.9 hPa | 0 mm | - | 697 W/m² | - |
| 1787778015 | 29.44° C | 25% | 1019.9 hPa | 0 mm | - | 837 W/m² | - |
| 1787777415 | 28.89° C | 25% | 1020.2 hPa | 0 mm | - | 889 W/m² | - |
| 1787776817 | 29.44° C | 25% | 1020.2 hPa | 0 mm | - | 848 W/m² | - |
| 1787776217 | 28.89° C | 23% | 1020.1 hPa | 0 mm | - | 913 W/m² | - |
| 1787775617 | 28.33° C | 24% | 1020.1 hPa | 0 mm | - | 926 W/m² | - |
| 1787775017 | 28.33° C | 24% | 1020.3 hPa | 0 mm | - | 933 W/m² | - |
| 1787774417 | 27.78° C | 24% | 1020.3 hPa | 0 mm | - | 908 W/m² | - |
| 1787773816 | 27.78° C | 33% | 1020.6 hPa | 0 mm | - | 935 W/m² | - |
| 1787773218 | 27.22° C | 27% | 1020.6 hPa | 0 mm | - | 906 W/m² | - |
| 1787772616 | 27.22° C | 32% | 1021 hPa | 0 mm | - | 757 W/m² | - |
| 1787772016 | 27.22° C | 28% | 1021.3 hPa | 0 mm | - | 756 W/m² | - |
| 1787771417 | 26.67° C | 27% | 1020.9 hPa | 0 mm | - | 901 W/m² | - |
| 1787770816 | 26.67° C | 31% | 1021 hPa | 0 mm | - | 812 W/m² | - |
| 1787770216 | 26.11° C | 32% | 1021.5 hPa | 0 mm | - | 785 W/m² | - |
| 1787769616 | 26.67° C | 31% | 1021.5 hPa | 0 mm | - | 891 W/m² | - |
| 1787769016 | 26.11° C | 31% | 1021.4 hPa | 0 mm | - | 798 W/m² | - |
| 1787768417 | 25.56° C | 34% | 1022 hPa | 0 mm | - | 852 W/m² | - |
| 1787767816 | 25° C | 34% | 1021.3 hPa | 0 mm | - | 780 W/m² | - |
| 1787767217 | 25° C | 34% | 1021.2 hPa | 0 mm | - | 791 W/m² | - |
| 1787766616 | 25° C | 34% | 1022.2 hPa | 0 mm | - | 534 W/m² | - |
* Rain latest hour (hover to see other rain measurements)
** Current wind speed in m/s (hover to see current wind gust speed)